sensor_id;sensor_type;location;lat;lon;timestamp;P1;durP1;ratioP1;P2;durP2;ratioP2
21677;SDS011;11000;50.360;7.582;2023-11-19T00:00:05;0.83;;;0.60;;
21677;SDS011;11000;50.360;7.582;2023-11-19T00:02:31;1.70;;;0.57;;
21677;SDS011;11000;50.360;7.582;2023-11-19T00:04:51;0.33;;;0.33;;
21677;SDS011;11000;50.360;7.582;2023-11-19T00:07:12;0.40;;;0.40;;
21677;SDS011;11000;50.360;7.582;2023-11-19T00:09:33;0.47;;;0.47;;
21677;SDS011;11000;50.360;7.582;2023-11-19T00:11:56;0.80;;;0.40;;
21677;SDS011;11000;50.360;7.582;2023-11-19T00:14:17;1.20;;;0.50;;
21677;SDS011;11000;50.360;7.582;2023-11-19T00:16:38;0.40;;;0.40;;
21677;SDS011;11000;50.360;7.582;2023-11-19T00:18:58;0.57;;;0.40;;
21677;SDS011;11000;50.360;7.582;2023-11-19T00:21:19;0.53;;;0.53;;
21677;SDS011;11000;50.360;7.582;2023-11-19T00:23:39;1.17;;;0.97;;
21677;SDS011;11000;50.360;7.582;2023-11-19T00:26:00;1.10;;;0.80;;
21677;SDS011;11000;50.360;7.582;2023-11-19T00:28:20;0.60;;;0.60;;
21677;SDS011;11000;50.360;7.582;2023-11-19T00:30:41;0.67;;;0.47;;
21677;SDS011;11000;50.360;7.582;2023-11-19T00:33:01;0.27;;;0.27;;
21677;SDS011;11000;50.360;7.582;2023-11-19T00:35:22;1.60;;;0.30;;
21677;SDS011;11000;50.360;7.582;2023-11-19T00:37:42;0.63;;;0.20;;
21677;SDS011;11000;50.360;7.582;2023-11-19T00:40:05;0.50;;;0.33;;
21677;SDS011;11000;50.360;7.582;2023-11-19T00:42:26;2.30;;;0.50;;
21677;SDS011;11000;50.360;7.582;2023-11-19T00:44:47;0.63;;;0.47;;
21677;SDS011;11000;50.360;7.582;2023-11-19T00:47:07;2.20;;;0.40;;
21677;SDS011;11000;50.360;7.582;2023-11-19T00:49:28;0.60;;;0.30;;
21677;SDS011;11000;50.360;7.582;2023-11-19T00:51:48;0.50;;;0.30;;
21677;SDS011;11000;50.360;7.582;2023-11-19T00:54:09;0.30;;;0.23;;
21677;SDS011;11000;50.360;7.582;2023-11-19T00:56:29;0.27;;;0.20;;
21677;SDS011;11000;50.360;7.582;2023-11-19T00:58:50;0.50;;;0.27;;
21677;SDS011;11000;50.360;7.582;2023-11-19T01:01:13;0.20;;;0.20;;
21677;SDS011;11000;50.360;7.582;2023-11-19T01:03:34;0.30;;;0.30;;
21677;SDS011;11000;50.360;7.582;2023-11-19T01:05:54;0.37;;;0.10;;
21677;SDS011;11000;50.360;7.582;2023-11-19T01:08:15;1.27;;;0.30;;
21677;SDS011;11000;50.360;7.582;2023-11-19T01:10:38;2.53;;;0.23;;
21677;SDS011;11000;50.360;7.582;2023-11-19T01:12:59;1.03;;;0.40;;
21677;SDS011;11000;50.360;7.582;2023-11-19T01:15:20;0.90;;;0.20;;
21677;SDS011;11000;50.360;7.582;2023-11-19T01:17:40;0.20;;;0.20;;
21677;SDS011;11000;50.360;7.582;2023-11-19T01:20:01;0.73;;;0.20;;
21677;SDS011;11000;50.360;7.582;2023-11-19T01:22:21;0.50;;;0.30;;
21677;SDS011;11000;50.360;7.582;2023-11-19T01:24:41;0.83;;;0.30;;
21677;SDS011;11000;50.360;7.582;2023-11-19T01:27:02;0.20;;;0.20;;
21677;SDS011;11000;50.360;7.582;2023-11-19T01:29:22;0.37;;;0.20;;
21677;SDS011;11000;50.360;7.582;2023-11-19T01:31:45;0.80;;;0.37;;
21677;SDS011;11000;50.360;7.582;2023-11-19T01:34:06;1.30;;;0.43;;
21677;SDS011;11000;50.360;7.582;2023-11-19T01:36:27;0.10;;;0.10;;
21677;SDS011;11000;50.360;7.582;2023-11-19T01:38:48;0.30;;;0.30;;
21677;SDS011;11000;50.360;7.582;2023-11-19T01:41:08;0.27;;;0.20;;
21677;SDS011;11000;50.360;7.582;2023-11-19T01:43:35;0.30;;;0.30;;
21677;SDS011;11000;50.360;7.582;2023-11-19T01:45:57;0.20;;;0.20;;
21677;SDS011;11000;50.360;7.582;2023-11-19T01:48:17;0.20;;;0.20;;
21677;SDS011;11000;50.360;7.582;2023-11-19T01:50:38;0.13;;;0.13;;
21677;SDS011;11000;50.360;7.582;2023-11-19T01:52:59;1.50;;;0.20;;
21677;SDS011;11000;50.360;7.582;2023-11-19T01:55:20;1.10;;;0.20;;
21677;SDS011;11000;50.360;7.582;2023-11-19T01:57:41;0.57;;;0.20;;
21677;SDS011;11000;50.360;7.582;2023-11-19T02:00:02;0.17;;;0.10;;
21677;SDS011;11000;50.360;7.582;2023-11-19T02:02:23;0.20;;;0.13;;
21677;SDS011;11000;50.360;7.582;2023-11-19T02:04:47;0.43;;;0.20;;
21677;SDS011;11000;50.360;7.582;2023-11-19T02:07:09;0.17;;;0.17;;
21677;SDS011;11000;50.360;7.582;2023-11-19T02:09:31;1.13;;;0.20;;
21677;SDS011;11000;50.360;7.582;2023-11-19T02:11:51;0.20;;;0.20;;
21677;SDS011;11000;50.360;7.582;2023-11-19T02:14:12;0.93;;;0.20;;
21677;SDS011;11000;50.360;7.582;2023-11-19T02:16:32;1.17;;;0.30;;
21677;SDS011;11000;50.360;7.582;2023-11-19T02:18:53;2.43;;;0.40;;
21677;SDS011;11000;50.360;7.582;2023-11-19T02:21:13;1.20;;;0.10;;
21677;SDS011;11000;50.360;7.582;2023-11-19T02:23:35;0.10;;;0.10;;
21677;SDS011;11000;50.360;7.582;2023-11-19T02:28:25;0.33;;;0.10;;
21677;SDS011;11000;50.360;7.582;2023-11-19T02:30:46;1.33;;;0.27;;
21677;SDS011;11000;50.360;7.582;2023-11-19T02:33:06;0.97;;;0.20;;
21677;SDS011;11000;50.360;7.582;2023-11-19T02:35:27;0.70;;;0.20;;
21677;SDS011;11000;50.360;7.582;2023-11-19T02:37:50;0.27;;;0.10;;
21677;SDS011;11000;50.360;7.582;2023-11-19T02:40:11;0.23;;;0.23;;
21677;SDS011;11000;50.360;7.582;2023-11-19T02:42:33;0.23;;;0.20;;
21677;SDS011;11000;50.360;7.582;2023-11-19T02:44:53;0.17;;;0.17;;
21677;SDS011;11000;50.360;7.582;2023-11-19T02:47:14;0.93;;;0.20;;
21677;SDS011;11000;50.360;7.582;2023-11-19T02:49:34;0.10;;;0.10;;
21677;SDS011;11000;50.360;7.582;2023-11-19T02:51:55;0.20;;;0.20;;
21677;SDS011;11000;50.360;7.582;2023-11-19T02:54:16;0.10;;;0.10;;
21677;SDS011;11000;50.360;7.582;2023-11-19T02:56:37;0.10;;;0.03;;
21677;SDS011;11000;50.360;7.582;2023-11-19T02:58:59;0.10;;;0.10;;
21677;SDS011;11000;50.360;7.582;2023-11-19T03:01:25;0.27;;;0.10;;
21677;SDS011;11000;50.360;7.582;2023-11-19T03:03:50;0.30;;;0.20;;
21677;SDS011;11000;50.360;7.582;2023-11-19T03:06:16;0.10;;;0.10;;
21677;SDS011;11000;50.360;7.582;2023-11-19T03:08:38;0.60;;;0.10;;
21677;SDS011;11000;50.360;7.582;2023-11-19T03:10:59;1.37;;;0.20;;
21677;SDS011;11000;50.360;7.582;2023-11-19T03:13:19;0.20;;;0.10;;
21677;SDS011;11000;50.360;7.582;2023-11-19T03:15:40;0.23;;;0.07;;
21677;SDS011;11000;50.360;7.582;2023-11-19T03:18:01;0.50;;;0.10;;
21677;SDS011;11000;50.360;7.582;2023-11-19T03:20:21;0.20;;;0.10;;
21677;SDS011;11000;50.360;7.582;2023-11-19T03:22:43;0.10;;;0.10;;
21677;SDS011;11000;50.360;7.582;2023-11-19T03:25:04;0.20;;;0.13;;
21677;SDS011;11000;50.360;7.582;2023-11-19T03:27:24;0.10;;;0.10;;
21677;SDS011;11000;50.360;7.582;2023-11-19T03:29:45;0.13;;;0.13;;
21677;SDS011;11000;50.360;7.582;2023-11-19T03:32:05;1.13;;;0.10;;
21677;SDS011;11000;50.360;7.582;2023-11-19T03:34:26;0.27;;;0.10;;
21677;SDS011;11000;50.360;7.582;2023-11-19T03:36:47;0.10;;;0.10;;
21677;SDS011;11000;50.360;7.582;2023-11-19T03:39:08;1.03;;;0.20;;
21677;SDS011;11000;50.360;7.582;2023-11-19T03:41:29;0.70;;;0.00;;
21677;SDS011;11000;50.360;7.582;2023-11-19T03:43:49;0.73;;;0.10;;
21677;SDS011;11000;50.360;7.582;2023-11-19T03:46:19;0.20;;;0.20;;
21677;SDS011;11000;50.360;7.582;2023-11-19T03:48:40;0.03;;;0.03;;
21677;SDS011;11000;50.360;7.582;2023-11-19T03:51:00;0.10;;;0.10;;
21677;SDS011;11000;50.360;7.582;2023-11-19T03:53:21;0.10;;;0.10;;
21677;SDS011;11000;50.360;7.582;2023-11-19T03:55:44;1.13;;;0.00;;
21677;SDS011;11000;50.360;7.582;2023-11-19T03:58:04;0.10;;;0.00;;
21677;SDS011;11000;50.360;7.582;2023-11-19T04:00:24;0.10;;;0.10;;
21677;SDS011;11000;50.360;7.582;2023-11-19T04:02:45;0.40;;;0.20;;
21677;SDS011;11000;50.360;7.582;2023-11-19T04:05:07;0.13;;;0.03;;
21677;SDS011;11000;50.360;7.582;2023-11-19T04:07:27;0.00;;;0.00;;
21677;SDS011;11000;50.360;7.582;2023-11-19T04:09:48;0.00;;;0.00;;
21677;SDS011;11000;50.360;7.582;2023-11-19T04:12:08;0.30;;;0.00;;
21677;SDS011;11000;50.360;7.582;2023-11-19T04:14:29;0.00;;;0.00;;
21677;SDS011;11000;50.360;7.582;2023-11-19T04:16:49;0.00;;;0.00;;
21677;SDS011;11000;50.360;7.582;2023-11-19T04:19:11;0.00;;;0.00;;
21677;SDS011;11000;50.360;7.582;2023-11-19T04:21:32;0.00;;;0.00;;
21677;SDS011;11000;50.360;7.582;2023-11-19T04:23:53;1.20;;;0.10;;
21677;SDS011;11000;50.360;7.582;2023-11-19T04:26:13;0.23;;;0.00;;
21677;SDS011;11000;50.360;7.582;2023-11-19T04:28:35;0.00;;;0.00;;
21677;SDS011;11000;50.360;7.582;2023-11-19T04:30:56;0.67;;;0.07;;
21677;SDS011;11000;50.360;7.582;2023-11-19T04:33:16;0.23;;;0.10;;
21677;SDS011;11000;50.360;7.582;2023-11-19T04:35:37;0.03;;;0.00;;
21677;SDS011;11000;50.360;7.582;2023-11-19T04:37:57;0.17;;;0.17;;
21677;SDS011;11000;50.360;7.582;2023-11-19T04:40:17;0.10;;;0.10;;
21677;SDS011;11000;50.360;7.582;2023-11-19T04:42:38;0.10;;;0.10;;
21677;SDS011;11000;50.360;7.582;2023-11-19T04:45:00;0.10;;;0.07;;
21677;SDS011;11000;50.360;7.582;2023-11-19T04:47:20;0.83;;;0.10;;
21677;SDS011;11000;50.360;7.582;2023-11-19T04:49:41;0.83;;;0.10;;
21677;SDS011;11000;50.360;7.582;2023-11-19T04:52:05;0.00;;;0.00;;
21677;SDS011;11000;50.360;7.582;2023-11-19T04:54:25;0.20;;;0.10;;
21677;SDS011;11000;50.360;7.582;2023-11-19T04:56:46;0.10;;;0.10;;
21677;SDS011;11000;50.360;7.582;2023-11-19T04:59:07;0.40;;;0.10;;
21677;SDS011;11000;50.360;7.582;2023-11-19T05:01:28;1.33;;;0.23;;
21677;SDS011;11000;50.360;7.582;2023-11-19T05:03:49;0.30;;;0.20;;
21677;SDS011;11000;50.360;7.582;2023-11-19T05:06:11;0.10;;;0.00;;
21677;SDS011;11000;50.360;7.582;2023-11-19T05:08:31;0.10;;;0.10;;
21677;SDS011;11000;50.360;7.582;2023-11-19T05:10:52;0.20;;;0.07;;
21677;SDS011;11000;50.360;7.582;2023-11-19T05:13:12;0.73;;;0.20;;
21677;SDS011;11000;50.360;7.582;2023-11-19T05:15:33;0.07;;;0.07;;
21677;SDS011;11000;50.360;7.582;2023-11-19T05:17:54;0.30;;;0.10;;
21677;SDS011;11000;50.360;7.582;2023-11-19T05:20:14;0.93;;;0.10;;
21677;SDS011;11000;50.360;7.582;2023-11-19T05:22:35;1.00;;;0.10;;
21677;SDS011;11000;50.360;7.582;2023-11-19T05:24:57;0.10;;;0.10;;
21677;SDS011;11000;50.360;7.582;2023-11-19T05:27:17;0.87;;;0.20;;
21677;SDS011;11000;50.360;7.582;2023-11-19T05:29:38;0.93;;;0.10;;
21677;SDS011;11000;50.360;7.582;2023-11-19T05:31:59;0.30;;;0.30;;
21677;SDS011;11000;50.360;7.582;2023-11-19T05:34:19;2.00;;;0.20;;
21677;SDS011;11000;50.360;7.582;2023-11-19T05:36:40;0.10;;;0.10;;
21677;SDS011;11000;50.360;7.582;2023-11-19T05:39:00;0.23;;;0.20;;
21677;SDS011;11000;50.360;7.582;2023-11-19T05:41:21;0.30;;;0.30;;
21677;SDS011;11000;50.360;7.582;2023-11-19T05:43:41;0.47;;;0.20;;
21677;SDS011;11000;50.360;7.582;2023-11-19T05:46:02;1.07;;;0.30;;
21677;SDS011;11000;50.360;7.582;2023-11-19T05:48:24;0.30;;;0.30;;
21677;SDS011;11000;50.360;7.582;2023-11-19T05:50:45;0.33;;;0.20;;
21677;SDS011;11000;50.360;7.582;2023-11-19T05:53:07;0.40;;;0.27;;
21677;SDS011;11000;50.360;7.582;2023-11-19T05:55:30;0.90;;;0.30;;
21677;SDS011;11000;50.360;7.582;2023-11-19T05:57:51;0.87;;;0.20;;
21677;SDS011;11000;50.360;7.582;2023-11-19T06:00:12;0.30;;;0.30;;
21677;SDS011;11000;50.360;7.582;2023-11-19T06:02:33;1.13;;;0.20;;
21677;SDS011;11000;50.360;7.582;2023-11-19T06:04:54;1.57;;;0.20;;
21677;SDS011;11000;50.360;7.582;2023-11-19T06:07:15;0.43;;;0.30;;
21677;SDS011;11000;50.360;7.582;2023-11-19T06:09:35;0.77;;;0.30;;
21677;SDS011;11000;50.360;7.582;2023-11-19T06:11:56;0.93;;;0.40;;
21677;SDS011;11000;50.360;7.582;2023-11-19T06:14:17;0.50;;;0.40;;
21677;SDS011;11000;50.360;7.582;2023-11-19T06:16:38;3.03;;;0.70;;
21677;SDS011;11000;50.360;7.582;2023-11-19T06:18:59;1.80;;;0.53;;
21677;SDS011;11000;50.360;7.582;2023-11-19T06:21:20;0.70;;;0.50;;
21677;SDS011;11000;50.360;7.582;2023-11-19T06:23:41;1.47;;;0.73;;
21677;SDS011;11000;50.360;7.582;2023-11-19T06:26:02;0.43;;;0.43;;
21677;SDS011;11000;50.360;7.582;2023-11-19T06:28:22;0.50;;;0.50;;
21677;SDS011;11000;50.360;7.582;2023-11-19T06:30:43;1.00;;;0.53;;
21677;SDS011;11000;50.360;7.582;2023-11-19T06:33:03;2.73;;;0.70;;
21677;SDS011;11000;50.360;7.582;2023-11-19T06:35:24;1.33;;;0.70;;
21677;SDS011;11000;50.360;7.582;2023-11-19T06:37:45;3.60;;;0.77;;
21677;SDS011;11000;50.360;7.582;2023-11-19T06:40:05;1.77;;;0.70;;
21677;SDS011;11000;50.360;7.582;2023-11-19T06:42:27;1.93;;;0.90;;
21677;SDS011;11000;50.360;7.582;2023-11-19T06:44:47;1.40;;;0.73;;
21677;SDS011;11000;50.360;7.582;2023-11-19T06:47:08;0.73;;;0.73;;
21677;SDS011;11000;50.360;7.582;2023-11-19T06:49:28;1.10;;;0.70;;
21677;SDS011;11000;50.360;7.582;2023-11-19T06:51:49;2.30;;;1.00;;
21677;SDS011;11000;50.360;7.582;2023-11-19T06:54:09;1.77;;;1.00;;
21677;SDS011;11000;50.360;7.582;2023-11-19T06:56:29;2.73;;;1.00;;
21677;SDS011;11000;50.360;7.582;2023-11-19T06:58:50;6.23;;;1.10;;
21677;SDS011;11000;50.360;7.582;2023-11-19T07:01:11;7.30;;;1.30;;
21677;SDS011;11000;50.360;7.582;2023-11-19T07:03:32;4.63;;;1.07;;
21677;SDS011;11000;50.360;7.582;2023-11-19T07:05:54;3.07;;;1.27;;
21677;SDS011;11000;50.360;7.582;2023-11-19T07:08:15;5.73;;;1.43;;
21677;SDS011;11000;50.360;7.582;2023-11-19T07:10:36;6.90;;;1.30;;
21677;SDS011;11000;50.360;7.582;2023-11-19T07:12:56;5.23;;;1.67;;
21677;SDS011;11000;50.360;7.582;2023-11-19T07:15:17;4.80;;;1.60;;
21677;SDS011;11000;50.360;7.582;2023-11-19T07:17:38;6.43;;;1.20;;
21677;SDS011;11000;50.360;7.582;2023-11-19T07:20:00;4.83;;;1.37;;
21677;SDS011;11000;50.360;7.582;2023-11-19T07:22:20;3.33;;;1.13;;
21677;SDS011;11000;50.360;7.582;2023-11-19T07:24:41;5.37;;;1.50;;
21677;SDS011;11000;50.360;7.582;2023-11-19T07:27:03;6.80;;;1.37;;
21677;SDS011;11000;50.360;7.582;2023-11-19T07:29:24;6.33;;;1.40;;
21677;SDS011;11000;50.360;7.582;2023-11-19T07:31:44;5.33;;;1.43;;
21677;SDS011;11000;50.360;7.582;2023-11-19T07:34:04;4.27;;;1.33;;
21677;SDS011;11000;50.360;7.582;2023-11-19T07:36:26;3.97;;;1.40;;
21677;SDS011;11000;50.360;7.582;2023-11-19T07:38:46;3.67;;;1.67;;
21677;SDS011;11000;50.360;7.582;2023-11-19T07:41:10;5.07;;;1.40;;
21677;SDS011;11000;50.360;7.582;2023-11-19T07:43:32;5.87;;;1.60;;
21677;SDS011;11000;50.360;7.582;2023-11-19T07:45:53;4.53;;;1.60;;
21677;SDS011;11000;50.360;7.582;2023-11-19T07:48:14;4.83;;;1.43;;
21677;SDS011;11000;50.360;7.582;2023-11-19T07:50:35;3.53;;;1.13;;
21677;SDS011;11000;50.360;7.582;2023-11-19T07:52:56;5.43;;;1.53;;
21677;SDS011;11000;50.360;7.582;2023-11-19T07:55:16;5.00;;;1.60;;
21677;SDS011;11000;50.360;7.582;2023-11-19T07:57:37;6.70;;;2.10;;
21677;SDS011;11000;50.360;7.582;2023-11-19T07:59:57;5.57;;;1.93;;
21677;SDS011;11000;50.360;7.582;2023-11-19T08:02:18;12.20;;;2.27;;
21677;SDS011;11000;50.360;7.582;2023-11-19T08:04:38;8.40;;;2.40;;
21677;SDS011;11000;50.360;7.582;2023-11-19T08:07:04;8.67;;;2.33;;
21677;SDS011;11000;50.360;7.582;2023-11-19T08:09:25;11.13;;;2.30;;
21677;SDS011;11000;50.360;7.582;2023-11-19T08:11:45;8.33;;;1.93;;
21677;SDS011;11000;50.360;7.582;2023-11-19T08:14:06;9.20;;;2.30;;
21677;SDS011;11000;50.360;7.582;2023-11-19T08:16:26;9.30;;;2.30;;
21677;SDS011;11000;50.360;7.582;2023-11-19T08:18:47;9.80;;;2.20;;
21677;SDS011;11000;50.360;7.582;2023-11-19T08:21:07;8.60;;;1.90;;
21677;SDS011;11000;50.360;7.582;2023-11-19T08:23:28;8.43;;;1.87;;
21677;SDS011;11000;50.360;7.582;2023-11-19T08:25:49;9.10;;;2.30;;
21677;SDS011;11000;50.360;7.582;2023-11-19T08:28:09;11.27;;;2.33;;
21677;SDS011;11000;50.360;7.582;2023-11-19T08:30:30;9.50;;;2.20;;
21677;SDS011;11000;50.360;7.582;2023-11-19T08:32:50;7.63;;;2.00;;
21677;SDS011;11000;50.360;7.582;2023-11-19T08:35:11;8.87;;;2.57;;
21677;SDS011;11000;50.360;7.582;2023-11-19T08:37:31;7.23;;;1.97;;
21677;SDS011;11000;50.360;7.582;2023-11-19T08:39:52;11.37;;;2.83;;
21677;SDS011;11000;50.360;7.582;2023-11-19T08:42:13;8.83;;;2.63;;
21677;SDS011;11000;50.360;7.582;2023-11-19T08:44:33;10.13;;;2.10;;
21677;SDS011;11000;50.360;7.582;2023-11-19T08:46:54;10.90;;;1.80;;
21677;SDS011;11000;50.360;7.582;2023-11-19T08:49:15;9.00;;;2.10;;
21677;SDS011;11000;50.360;7.582;2023-11-19T08:51:35;12.03;;;1.70;;
21677;SDS011;11000;50.360;7.582;2023-11-19T08:53:55;9.47;;;1.87;;
21677;SDS011;11000;50.360;7.582;2023-11-19T08:56:17;8.17;;;2.27;;
21677;SDS011;11000;50.360;7.582;2023-11-19T08:58:37;8.53;;;2.00;;
21677;SDS011;11000;50.360;7.582;2023-11-19T09:00:58;10.53;;;2.27;;
21677;SDS011;11000;50.360;7.582;2023-11-19T09:03:18;9.83;;;2.10;;
21677;SDS011;11000;50.360;7.582;2023-11-19T09:05:40;8.97;;;1.93;;
21677;SDS011;11000;50.360;7.582;2023-11-19T09:08:00;11.97;;;2.53;;
21677;SDS011;11000;50.360;7.582;2023-11-19T09:10:21;10.57;;;2.03;;
21677;SDS011;11000;50.360;7.582;2023-11-19T09:12:41;7.17;;;2.27;;
21677;SDS011;11000;50.360;7.582;2023-11-19T09:15:02;11.83;;;2.60;;
21677;SDS011;11000;50.360;7.582;2023-11-19T09:17:22;12.30;;;2.57;;
21677;SDS011;11000;50.360;7.582;2023-11-19T09:19:43;10.10;;;2.50;;
21677;SDS011;11000;50.360;7.582;2023-11-19T09:22:04;10.23;;;2.73;;
21677;SDS011;11000;50.360;7.582;2023-11-19T09:24:24;8.23;;;2.37;;
21677;SDS011;11000;50.360;7.582;2023-11-19T09:26:45;11.77;;;2.70;;
21677;SDS011;11000;50.360;7.582;2023-11-19T09:29:05;13.63;;;2.80;;
21677;SDS011;11000;50.360;7.582;2023-11-19T09:31:26;11.83;;;2.33;;
21677;SDS011;11000;50.360;7.582;2023-11-19T09:33:46;11.70;;;2.70;;
21677;SDS011;11000;50.360;7.582;2023-11-19T09:36:07;10.63;;;2.50;;
21677;SDS011;11000;50.360;7.582;2023-11-19T09:38:28;11.00;;;2.40;;
21677;SDS011;11000;50.360;7.582;2023-11-19T09:40:48;9.27;;;2.83;;
21677;SDS011;11000;50.360;7.582;2023-11-19T09:43:09;13.27;;;2.93;;
21677;SDS011;11000;50.360;7.582;2023-11-19T09:45:30;12.90;;;2.80;;
21677;SDS011;11000;50.360;7.582;2023-11-19T09:47:57;15.27;;;3.10;;
21677;SDS011;11000;50.360;7.582;2023-11-19T09:50:20;10.60;;;3.10;;
21677;SDS011;11000;50.360;7.582;2023-11-19T09:52:41;11.00;;;2.53;;
21677;SDS011;11000;50.360;7.582;2023-11-19T09:55:02;10.67;;;2.73;;
21677;SDS011;11000;50.360;7.582;2023-11-19T09:57:23;11.70;;;2.00;;
21677;SDS011;11000;50.360;7.582;2023-11-19T09:59:43;8.13;;;2.37;;
21677;SDS011;11000;50.360;7.582;2023-11-19T10:02:06;14.23;;;2.53;;
21677;SDS011;11000;50.360;7.582;2023-11-19T10:04:29;13.23;;;3.40;;
21677;SDS011;11000;50.360;7.582;2023-11-19T10:06:51;9.37;;;2.17;;
21677;SDS011;11000;50.360;7.582;2023-11-19T10:09:12;9.73;;;2.53;;
21677;SDS011;11000;50.360;7.582;2023-11-19T10:11:35;12.67;;;2.30;;
21677;SDS011;11000;50.360;7.582;2023-11-19T10:13:55;12.13;;;2.20;;
21677;SDS011;11000;50.360;7.582;2023-11-19T10:16:17;11.50;;;2.70;;
21677;SDS011;11000;50.360;7.582;2023-11-19T10:18:37;14.07;;;2.53;;
21677;SDS011;11000;50.360;7.582;2023-11-19T10:21:02;14.37;;;3.10;;
21677;SDS011;11000;50.360;7.582;2023-11-19T10:23:26;10.90;;;2.60;;
21677;SDS011;11000;50.360;7.582;2023-11-19T10:25:47;15.67;;;3.03;;
21677;SDS011;11000;50.360;7.582;2023-11-19T10:28:07;14.90;;;3.37;;
21677;SDS011;11000;50.360;7.582;2023-11-19T10:30:28;12.53;;;3.07;;
21677;SDS011;11000;50.360;7.582;2023-11-19T10:33:08;11.07;;;2.40;;
21677;SDS011;11000;50.360;7.582;2023-11-19T10:35:31;12.47;;;2.83;;
21677;SDS011;11000;50.360;7.582;2023-11-19T10:37:52;15.57;;;3.33;;
21677;SDS011;11000;50.360;7.582;2023-11-19T10:40:13;20.53;;;3.33;;
21677;SDS011;11000;50.360;7.582;2023-11-19T10:42:34;12.80;;;3.40;;
21677;SDS011;11000;50.360;7.582;2023-11-19T10:44:55;13.20;;;2.30;;
21677;SDS011;11000;50.360;7.582;2023-11-19T10:47:18;12.73;;;2.63;;
21677;SDS011;11000;50.360;7.582;2023-11-19T10:49:40;17.83;;;4.03;;
21677;SDS011;11000;50.360;7.582;2023-11-19T10:52:00;16.93;;;3.17;;
21677;SDS011;11000;50.360;7.582;2023-11-19T10:54:22;17.50;;;3.00;;
21677;SDS011;11000;50.360;7.582;2023-11-19T10:56:44;13.53;;;2.87;;
21677;SDS011;11000;50.360;7.582;2023-11-19T10:59:06;15.30;;;2.83;;
21677;SDS011;11000;50.360;7.582;2023-11-19T11:01:31;12.93;;;3.33;;
21677;SDS011;11000;50.360;7.582;2023-11-19T11:04:00;18.07;;;3.43;;
21677;SDS011;11000;50.360;7.582;2023-11-19T11:06:23;15.80;;;3.23;;
21677;SDS011;11000;50.360;7.582;2023-11-19T11:08:44;10.67;;;2.70;;
21677;SDS011;11000;50.360;7.582;2023-11-19T11:11:07;9.93;;;2.47;;
21677;SDS011;11000;50.360;7.582;2023-11-19T11:13:28;18.33;;;3.17;;
21677;SDS011;11000;50.360;7.582;2023-11-19T11:15:49;12.87;;;2.87;;
21677;SDS011;11000;50.360;7.582;2023-11-19T11:18:11;15.17;;;2.73;;
21677;SDS011;11000;50.360;7.582;2023-11-19T11:20:32;15.17;;;2.93;;
21677;SDS011;11000;50.360;7.582;2023-11-19T11:23:02;15.50;;;3.07;;
21677;SDS011;11000;50.360;7.582;2023-11-19T11:34:00;10.30;;;2.30;;
21677;SDS011;11000;50.360;7.582;2023-11-19T11:36:51;13.20;;;2.83;;
21677;SDS011;11000;50.360;7.582;2023-11-19T11:39:22;10.03;;;2.00;;
21677;SDS011;11000;50.360;7.582;2023-11-19T11:41:45;14.37;;;2.77;;
21677;SDS011;11000;50.360;7.582;2023-11-19T11:44:05;11.03;;;2.07;;
21677;SDS011;11000;50.360;7.582;2023-11-19T11:48:52;15.80;;;2.50;;
21677;SDS011;11000;50.360;7.582;2023-11-19T11:51:14;14.50;;;3.17;;
21677;SDS011;11000;50.360;7.582;2023-11-19T11:53:34;15.73;;;2.73;;
21677;SDS011;11000;50.360;7.582;2023-11-19T11:55:55;12.57;;;2.17;;
21677;SDS011;11000;50.360;7.582;2023-11-19T11:58:22;14.17;;;2.83;;
21677;SDS011;11000;50.360;7.582;2023-11-19T12:00:46;11.70;;;2.80;;
21677;SDS011;11000;50.360;7.582;2023-11-19T12:03:08;13.60;;;2.90;;
21677;SDS011;11000;50.360;7.582;2023-11-19T12:05:29;10.77;;;2.60;;
21677;SDS011;11000;50.360;7.582;2023-11-19T12:07:56;9.13;;;2.23;;
21677;SDS011;11000;50.360;7.582;2023-11-19T12:10:20;12.60;;;2.40;;
21677;SDS011;11000;50.360;7.582;2023-11-19T12:12:41;12.80;;;2.40;;
21677;SDS011;11000;50.360;7.582;2023-11-19T12:15:03;12.67;;;2.40;;
21677;SDS011;11000;50.360;7.582;2023-11-19T12:19:53;10.30;;;2.03;;
21677;SDS011;11000;50.360;7.582;2023-11-19T12:22:14;7.57;;;2.63;;
21677;SDS011;11000;50.360;7.582;2023-11-19T12:24:35;12.97;;;2.53;;
21677;SDS011;11000;50.360;7.582;2023-11-19T12:26:55;10.57;;;2.03;;
21677;SDS011;11000;50.360;7.582;2023-11-19T12:29:17;8.20;;;2.17;;
21677;SDS011;11000;50.360;7.582;2023-11-19T12:31:38;11.00;;;2.30;;
21677;SDS011;11000;50.360;7.582;2023-11-19T12:34:06;9.37;;;2.60;;
21677;SDS011;11000;50.360;7.582;2023-11-19T12:36:31;7.70;;;2.03;;
21677;SDS011;11000;50.360;7.582;2023-11-19T12:38:52;11.07;;;2.53;;
21677;SDS011;11000;50.360;7.582;2023-11-19T12:41:12;8.23;;;2.23;;
21677;SDS011;11000;50.360;7.582;2023-11-19T12:43:37;10.23;;;2.50;;
21677;SDS011;11000;50.360;7.582;2023-11-19T12:45:58;9.33;;;2.30;;
21677;SDS011;11000;50.360;7.582;2023-11-19T12:48:19;9.50;;;2.07;;
21677;SDS011;11000;50.360;7.582;2023-11-19T12:50:56;12.97;;;2.47;;
21677;SDS011;11000;50.360;7.582;2023-11-19T12:53:17;11.23;;;2.47;;
21677;SDS011;11000;50.360;7.582;2023-11-19T12:55:38;10.43;;;2.40;;
21677;SDS011;11000;50.360;7.582;2023-11-19T12:57:59;7.70;;;2.03;;
21677;SDS011;11000;50.360;7.582;2023-11-19T13:00:20;10.33;;;2.50;;
21677;SDS011;11000;50.360;7.582;2023-11-19T13:02:48;13.57;;;2.63;;
21677;SDS011;11000;50.360;7.582;2023-11-19T13:05:46;9.17;;;2.50;;
21677;SDS011;11000;50.360;7.582;2023-11-19T13:08:06;10.33;;;2.00;;
21677;SDS011;11000;50.360;7.582;2023-11-19T13:10:28;8.80;;;2.67;;
21677;SDS011;11000;50.360;7.582;2023-11-19T13:13:02;12.53;;;3.43;;
21677;SDS011;11000;50.360;7.582;2023-11-19T13:15:24;9.70;;;2.33;;
21677;SDS011;11000;50.360;7.582;2023-11-19T13:17:47;10.70;;;1.93;;
21677;SDS011;11000;50.360;7.582;2023-11-19T13:20:07;12.13;;;2.60;;
21677;SDS011;11000;50.360;7.582;2023-11-19T13:22:28;8.77;;;2.47;;
21677;SDS011;11000;50.360;7.582;2023-11-19T13:24:48;12.63;;;2.33;;
21677;SDS011;11000;50.360;7.582;2023-11-19T13:27:09;8.90;;;2.13;;
21677;SDS011;11000;50.360;7.582;2023-11-19T13:29:30;11.40;;;2.30;;
21677;SDS011;11000;50.360;7.582;2023-11-19T13:31:50;8.47;;;2.30;;
21677;SDS011;11000;50.360;7.582;2023-11-19T13:34:11;9.70;;;2.47;;
21677;SDS011;11000;50.360;7.582;2023-11-19T13:36:31;9.13;;;2.43;;
21677;SDS011;11000;50.360;7.582;2023-11-19T13:38:52;11.57;;;3.00;;
21677;SDS011;11000;50.360;7.582;2023-11-19T13:41:18;10.57;;;2.13;;
21677;SDS011;11000;50.360;7.582;2023-11-19T13:43:40;13.27;;;2.67;;
21677;SDS011;11000;50.360;7.582;2023-11-19T13:46:01;15.93;;;2.60;;
21677;SDS011;11000;50.360;7.582;2023-11-19T13:48:22;13.00;;;2.00;;
21677;SDS011;11000;50.360;7.582;2023-11-19T13:50:43;8.37;;;2.10;;
21677;SDS011;11000;50.360;7.582;2023-11-19T13:53:03;11.67;;;2.10;;
21677;SDS011;11000;50.360;7.582;2023-11-19T13:55:24;12.00;;;2.40;;
21677;SDS011;11000;50.360;7.582;2023-11-19T13:57:45;12.20;;;2.57;;
21677;SDS011;11000;50.360;7.582;2023-11-19T14:00:07;10.70;;;2.20;;
21677;SDS011;11000;50.360;7.582;2023-11-19T14:02:33;8.23;;;2.70;;
21677;SDS011;11000;50.360;7.582;2023-11-19T14:04:53;9.10;;;2.33;;
21677;SDS011;11000;50.360;7.582;2023-11-19T14:07:14;7.20;;;2.43;;
21677;SDS011;11000;50.360;7.582;2023-11-19T14:09:35;13.93;;;2.50;;
21677;SDS011;11000;50.360;7.582;2023-11-19T14:11:55;10.80;;;2.57;;
21677;SDS011;11000;50.360;7.582;2023-11-19T14:14:17;9.77;;;2.30;;
21677;SDS011;11000;50.360;7.582;2023-11-19T14:16:37;9.00;;;2.20;;
21677;SDS011;11000;50.360;7.582;2023-11-19T14:18:58;9.93;;;2.07;;
21677;SDS011;11000;50.360;7.582;2023-11-19T14:21:18;9.53;;;2.43;;
21677;SDS011;11000;50.360;7.582;2023-11-19T14:23:38;13.63;;;2.87;;